Aérodrome :
LOGIN :

S'inscrire | Disclaimer

   EN    FR    IT 

 










Légende :    VFR   VFR Marginal   IFR   IFR Intensif   IFR Très Intensif
Visi : 
Plafond : 
>= 8 km
>= 3000ft
5 à 8 km
1000 à 3000 ft
1500m à 5 km
500 à 1000 ft
800 à 1500m
200 à 500 ft
< 800m
< 200 ft
Symboles :   Orages  Brouillard  Fortes neiges  Fortes précipitations  Vent > 20 kt
SIGMETs :   Divers  Orages  Givrage  Turbulence  Onde Orograph.  Cendres Volcan.







- Altitude de l'aérodrome : 325 ft
- Code IATA : BES
- Voir les cartes d'approche


LFRB - Brest

DERNIER METAR :
  • 122130Z AUTO 22013KT 9999 FEW022 12/08 Q1016 TEMPO SHRA BKN016TCU

METARs EXPIRÉS :
  • 122100Z AUTO 22011KT 9999 FEW024 11/08 Q1016 TEMPO SHRA BKN016TCU
  • 122030Z AUTO 22010KT CAVOK 11/08 Q1015 TEMPO SHRA BKN016TCU
  • 122000Z AUTO 22011KT 9999 FEW025 11/08 Q1015 TEMPO SHRA BKN016TCU
  • 121930Z AUTO 23012KT 9999 -RA FEW027 SCT048 BKN058 11/06 Q1015 TEMPO SHRA BKN016TCU
  • 121900Z AUTO 22012KT CAVOK 11/07 Q1015 TEMPO 4000 TSRA BKN016TCU

TAF TAF LFRB
Valide du 12 à 18h jusqu'au 14 à 00h UTC


121700Z 1218/1324 20013KT 9999 SCT020 SCT030
TEMPO 1218/1306 SHRA BKN016TCU
PROB30
TEMPO 1218/1220 4000 TSRA SCT013CB BKN015
ATIS : +33 2 98 32 02 71
Pas de NOTAMs connus pour ce terrain.



MET'MAP, la Météo Aéronautique d'un coup d'oeil ! - Copyright ORBIFLY Décembre 2007 - Disclaimer

ORBIFLY MET'MAP TEAM :

Programmation & Développement : Alexandra Zaïnal
Conception & Développement : Baudouin d'Aumeries
Co-Programmation & Développement : Marc-Olivier Méhu
Soutien technique & logistique : Manuel Goepfert

Contact : metmap@orbifly.com




SOURCES & CREDITS :

   NOAA